Kirtland Hills, Ohio
Current Conditions -  °F | °C
As of 1:45 PM on Monday 24 Nov 2014 (Local Time) from KCGF Reporting Station
Broken Clouds Broken Clouds  
Wind Chill: 59°   Ceiling: 7000
Heat Index: 59°   Visibility: 10mi
Dew Point: 52°   Wind: 23mph
Humidity: 77%   Direction: 230°SW
Pressure: 29.29"   Gusts: 35mph
Location:  41.6111°N, 81.3789°W
Report Text: KCGF 241845Z 23020G30KT 10SM FEW025 BKN070 15/11 A2929
Loading
Personal Weather Stations






























Interactive Weather Map New forecast layout! Learn more

10-Day Weather Forecast

Advertisements
Track Severe Weather on mobile